createdAt,value
2016-10-21T00:00:03.842Z,9.3
2016-10-21T00:00:13.837Z,9.4
2016-10-21T00:00:23.831Z,9.4
2016-10-21T00:00:33.825Z,9.4
2016-10-21T00:00:43.818Z,9.4
2016-10-21T00:00:53.811Z,9.3
2016-10-21T00:01:03.808Z,9.3
2016-10-21T00:01:13.801Z,9.3
2016-10-21T00:01:23.796Z,9.3
2016-10-21T00:01:33.791Z,9.3
2016-10-21T00:01:43.784Z,9.4
2016-10-21T00:01:53.779Z,9.3
2016-10-21T00:02:03.772Z,9.5
2016-10-21T00:02:13.766Z,9.4
2016-10-21T00:02:23.761Z,9.5
2016-10-21T00:02:33.754Z,9.3
2016-10-21T00:02:43.749Z,9.3
2016-10-21T00:02:53.743Z,9.4
2016-10-21T00:03:03.737Z,9.4
2016-10-21T00:03:13.731Z,9.4
2016-10-21T00:03:23.725Z,9.4
2016-10-21T00:03:33.720Z,9.4
2016-10-21T00:03:43.715Z,9.5
2016-10-21T00:03:53.708Z,9.4
2016-10-21T00:04:03.702Z,9.4
2016-10-21T00:04:13.696Z,9.4
2016-10-21T00:04:23.691Z,9.4
2016-10-21T00:04:33.685Z,9.4
2016-10-21T00:04:43.678Z,9.4
2016-10-21T00:04:53.673Z,9.4
2016-10-21T00:05:03.669Z,9.4
2016-10-21T00:05:13.662Z,9.4
2016-10-21T00:05:23.656Z,9.4
2016-10-21T00:05:33.650Z,9.4
2016-10-21T00:05:43.644Z,9.4
2016-10-21T00:05:53.638Z,9.4
2016-10-21T00:06:03.632Z,9.4
2016-10-21T00:06:13.627Z,9.5
2016-10-21T00:06:23.621Z,9.3
2016-10-21T00:06:33.614Z,9.4
2016-10-21T00:06:43.609Z,9.4
2016-10-21T00:06:53.604Z,9.3
2016-10-21T00:07:03.597Z,9.3
2016-10-21T00:07:13.592Z,9.4
2016-10-21T00:07:23.585Z,9.3
2016-10-21T00:07:33.580Z,9.4
2016-10-21T00:07:43.574Z,9.4
2016-10-21T00:07:53.569Z,9.4
2016-10-21T00:08:03.563Z,9.4
2016-10-21T00:08:13.557Z,9.4
2016-10-21T00:08:23.567Z,9.3
2016-10-21T00:08:33.545Z,9.3
2016-10-21T00:08:43.539Z,9.4
2016-10-21T00:08:53.533Z,9.3
2016-10-21T00:09:03.528Z,9.3
2016-10-21T00:09:13.522Z,9.3
2016-10-21T00:09:23.516Z,9.3
2016-10-21T00:09:33.510Z,9.4
2016-10-21T00:09:43.504Z,9.3
2016-10-21T00:09:53.499Z,9.3
2016-10-21T00:10:03.493Z,9.3
2016-10-21T00:10:13.487Z,9.4
2016-10-21T00:10:23.477Z,9.3
2016-10-21T00:10:33.470Z,9.3
2016-10-21T00:10:43.465Z,9.3
2016-10-21T00:10:53.496Z,9.4
2016-10-21T00:11:03.453Z,9.4
2016-10-21T00:11:13.448Z,9.3
2016-10-21T00:11:23.442Z,9.3
2016-10-21T00:11:33.436Z,9.4
2016-10-21T00:11:43.430Z,9.3
2016-10-21T00:11:53.425Z,9.4
2016-10-21T00:12:03.418Z,9.3
2016-10-21T00:12:13.412Z,9.2
2016-10-21T00:12:23.407Z,9.3
2016-10-21T00:12:33.401Z,9.3
2016-10-21T00:12:43.395Z,9.3
2016-10-21T00:12:53.389Z,9.4
2016-10-21T00:13:03.384Z,9.3
2016-10-21T00:13:13.378Z,9.3
2016-10-21T00:13:23.373Z,9.3
2016-10-21T00:13:33.366Z,9.3
2016-10-21T00:13:43.360Z,9.3
2016-10-21T00:13:53.355Z,9.4
2016-10-21T00:14:03.348Z,9.3
2016-10-21T00:14:13.342Z,9.4
2016-10-21T00:14:23.337Z,9.3
2016-10-21T00:14:33.331Z,9.3
2016-10-21T00:14:43.325Z,9.4
2016-10-21T00:14:53.321Z,9.4
2016-10-21T00:15:03.314Z,9.4
2016-10-21T00:15:13.309Z,9.3
2016-10-21T00:15:23.301Z,9.3
2016-10-21T00:15:33.296Z,9.3
2016-10-21T00:15:43.289Z,9.3
2016-10-21T00:15:53.284Z,9.3
2016-10-21T00:16:03.278Z,9.3
2016-10-21T00:16:13.273Z,9.4
2016-10-21T00:16:23.266Z,9.4
2016-10-21T00:16:33.261Z,9.3
2016-10-21T00:16:43.255Z,9.3
2016-10-21T00:16:53.250Z,9.3
2016-10-21T00:17:03.244Z,9.4
2016-10-21T00:17:13.236Z,9.3
2016-10-21T00:17:23.232Z,9.3
2016-10-21T00:17:33.226Z,9.3
2016-10-21T00:17:43.221Z,9.3
2016-10-21T00:17:53.218Z,9.4
2016-10-21T00:18:03.209Z,9.3
2016-10-21T00:18:13.202Z,9.3
2016-10-21T00:18:23.197Z,9.3
2016-10-21T00:18:33.191Z,9.3
2016-10-21T00:18:43.184Z,9.3
2016-10-21T00:18:53.180Z,9.4
2016-10-21T00:19:03.173Z,9.4
2016-10-21T00:19:13.168Z,9.5
2016-10-21T00:19:23.161Z,9.4
2016-10-21T00:19:33.157Z,9.5
2016-10-21T00:19:43.151Z,9.3
2016-10-21T00:19:53.168Z,9.3
2016-10-21T00:20:03.139Z,9.3
2016-10-21T00:20:13.133Z,9.3
2016-10-21T00:20:23.127Z,9.4
2016-10-21T00:20:33.121Z,9.4
2016-10-21T00:20:43.115Z,9.4
2016-10-21T00:20:53.109Z,9.3
2016-10-21T00:21:03.104Z,9.3
2016-10-21T00:21:13.098Z,9.3
2016-10-21T00:21:23.092Z,9.3
2016-10-21T00:21:33.086Z,9.4
2016-10-21T00:21:43.080Z,9.4
2016-10-21T00:21:53.075Z,9.3
2016-10-21T00:22:03.068Z,9.3
2016-10-21T00:22:13.065Z,9.3
2016-10-21T00:22:23.057Z,9.3
2016-10-21T00:22:33.052Z,9.3
2016-10-21T00:22:43.045Z,9.3
2016-10-21T00:22:53.040Z,9.3
2016-10-21T00:23:03.033Z,9.4
2016-10-21T00:23:13.027Z,9.3
2016-10-21T00:23:23.021Z,9.3
2016-10-21T00:23:33.016Z,9.3
2016-10-21T00:23:43.011Z,9.3
2016-10-21T00:23:53.004Z,9.4
2016-10-21T00:24:02.999Z,9.3
2016-10-21T00:24:12.993Z,9.3
2016-10-21T00:24:22.988Z,9.3
2016-10-21T00:24:32.982Z,9.3
2016-10-21T00:24:42.974Z,9.3
2016-10-21T00:24:52.969Z,9.3
2016-10-21T00:25:02.964Z,9.3
2016-10-21T00:25:12.957Z,9.3
2016-10-21T00:25:22.952Z,9.3
2016-10-21T00:25:32.946Z,9.4
2016-10-21T00:25:42.940Z,9.4
2016-10-21T00:25:52.935Z,9.4
2016-10-21T00:26:02.928Z,9.3
2016-10-21T00:26:12.922Z,9.4
2016-10-21T00:26:22.917Z,9.3
2016-10-21T00:26:32.911Z,9.3
2016-10-21T00:26:42.905Z,9.3
2016-10-21T00:26:52.899Z,9.3
2016-10-21T00:27:02.894Z,9.4
2016-10-21T00:27:12.888Z,9.4
2016-10-21T00:27:22.883Z,9.4
2016-10-21T00:27:32.876Z,9.3
2016-10-21T00:27:42.871Z,9.4
2016-10-21T00:27:52.864Z,9.3
2016-10-21T00:28:02.858Z,9.5
2016-10-21T00:28:12.853Z,9.3
2016-10-21T00:28:22.847Z,9.3
2016-10-21T00:28:32.842Z,9.3
2016-10-21T00:28:42.835Z,9.3
2016-10-21T00:28:52.829Z,9.3
2016-10-21T00:29:02.824Z,9.3
2016-10-21T00:29:12.818Z,9.3
2016-10-21T00:29:22.812Z,9.3
2016-10-21T00:29:32.806Z,9.3
2016-10-21T00:29:42.800Z,9.3
2016-10-21T00:29:52.795Z,9.3
2016-10-21T00:30:02.788Z,9.3
2016-10-21T00:30:12.783Z,9.3
2016-10-21T00:30:22.778Z,9.4
2016-10-21T00:30:32.771Z,9.3
2016-10-21T00:30:42.765Z,9.3
2016-10-21T00:30:52.760Z,9.3
2016-10-21T00:31:02.753Z,9.3
2016-10-21T00:31:12.748Z,9.3
2016-10-21T00:31:22.742Z,9.3
2016-10-21T00:31:32.736Z,9.3
2016-10-21T00:31:42.731Z,9.4
2016-10-21T00:31:52.724Z,9.2
2016-10-21T00:32:02.719Z,9.4
2016-10-21T00:32:12.713Z,9.4
2016-10-21T00:32:22.707Z,9.3
2016-10-21T00:32:32.701Z,9.3
2016-10-21T00:32:42.694Z,9.3
2016-10-21T00:32:52.690Z,9.3
2016-10-21T00:33:02.684Z,9.4
2016-10-21T00:33:12.677Z,9.3
2016-10-21T00:33:22.672Z,9.3
2016-10-21T00:33:32.667Z,9.4
2016-10-21T00:33:42.660Z,9.3
2016-10-21T00:33:52.654Z,9.4
2016-10-21T00:34:02.650Z,9.3
2016-10-21T00:34:12.642Z,9.3
2016-10-21T00:34:22.637Z,9.3
2016-10-21T00:34:32.632Z,9.3
2016-10-21T00:34:42.626Z,9.3
2016-10-21T00:34:52.620Z,9.3
2016-10-21T00:35:02.613Z,9.3
2016-10-21T00:35:12.608Z,9.3
2016-10-21T00:35:22.601Z,9.4
2016-10-21T00:35:32.595Z,9.3
2016-10-21T00:35:42.590Z,9.3
2016-10-21T00:35:52.584Z,9.3
2016-10-21T00:36:02.579Z,9.4
2016-10-21T00:36:12.575Z,9.4
2016-10-21T00:36:22.568Z,9.3
2016-10-21T00:36:32.562Z,9.3
2016-10-21T00:36:42.554Z,9.3
2016-10-21T00:36:52.549Z,9.3
2016-10-21T00:37:02.544Z,9.3
2016-10-21T00:37:12.537Z,9.2
2016-10-21T00:37:22.532Z,9.2
2016-10-21T00:37:32.528Z,9.2
2016-10-21T00:37:42.520Z,9.2
2016-10-21T00:37:52.514Z,9.2
2016-10-21T00:38:02.508Z,9.2
2016-10-21T00:38:12.502Z,9.1
2016-10-21T00:38:22.498Z,9.3
2016-10-21T00:38:32.491Z,9.3
2016-10-21T00:38:42.485Z,9.2
2016-10-21T00:38:52.480Z,9.3
2016-10-21T00:39:02.473Z,9.3
2016-10-21T00:39:12.469Z,9.3
2016-10-21T00:39:22.461Z,9.3
2016-10-21T00:39:32.456Z,9.2
2016-10-21T00:39:42.450Z,9.3
2016-10-21T00:39:52.444Z,9.2
2016-10-21T00:40:02.439Z,9.2
2016-10-21T00:40:12.433Z,9.2
2016-10-21T00:40:22.427Z,9.1
2016-10-21T00:40:32.421Z,9.3
2016-10-21T00:40:42.416Z,9.2
2016-10-21T00:40:52.409Z,9.1
2016-10-21T00:41:02.404Z,9.2
2016-10-21T00:41:12.398Z,9.2
2016-10-21T00:41:22.392Z,9.3
2016-10-21T00:41:32.386Z,9.3
2016-10-21T00:41:42.380Z,9.3
2016-10-21T00:41:52.374Z,9.2
2016-10-21T00:42:02.369Z,9.2
2016-10-21T00:42:12.362Z,9.2
2016-10-21T00:42:22.357Z,9.2
2016-10-21T00:42:32.351Z,9.2
2016-10-21T00:42:42.345Z,9.3
2016-10-21T00:42:52.340Z,9.2
2016-10-21T00:43:02.333Z,9.2
2016-10-21T00:43:12.327Z,9.1
2016-10-21T00:43:22.321Z,9.2
2016-10-21T00:43:32.316Z,9.3
2016-10-21T00:43:42.312Z,9.1
2016-10-21T00:43:52.304Z,9.1
2016-10-21T00:44:02.299Z,9.1
2016-10-21T00:44:12.293Z,9.1
2016-10-21T00:44:22.287Z,9.3
2016-10-21T00:44:32.280Z,9.2
2016-10-21T00:44:42.274Z,9.2
2016-10-21T00:44:52.269Z,9.2
2016-10-21T00:45:02.263Z,9.1
2016-10-21T00:45:12.257Z,9.2
2016-10-21T00:45:22.252Z,9.3
2016-10-21T00:45:32.247Z,9.3
2016-10-21T00:45:42.240Z,9.2
2016-10-21T00:45:52.235Z,9.1
2016-10-21T00:46:02.228Z,9.2
2016-10-21T00:46:12.222Z,9.1
2016-10-21T00:46:22.217Z,9.3
2016-10-21T00:46:32.211Z,9.1
2016-10-21T00:46:42.207Z,9.1
2016-10-21T00:46:52.200Z,9.2
2016-10-21T00:47:02.194Z,9.2
2016-10-21T00:47:12.188Z,9.1
2016-10-21T00:47:22.181Z,9.1
2016-10-21T00:47:32.176Z,9.1
2016-10-21T00:47:42.171Z,9.1
2016-10-21T00:47:52.164Z,9.2
2016-10-21T00:48:02.159Z,9.1
2016-10-21T00:48:12.153Z,9.1
2016-10-21T00:48:22.147Z,9.2
2016-10-21T00:48:32.143Z,9.2
2016-10-21T00:48:42.135Z,9.2
2016-10-21T00:48:52.130Z,9.1
2016-10-21T00:49:02.124Z,9.2
2016-10-21T00:49:12.117Z,9.2
2016-10-21T00:49:22.112Z,9.2
2016-10-21T00:49:32.106Z,9.2
2016-10-21T00:49:42.101Z,9.1
2016-10-21T00:49:52.095Z,9.2
2016-10-21T00:50:02.088Z,9.2
2016-10-21T00:50:12.083Z,9.2
2016-10-21T00:50:22.077Z,9.2
2016-10-21T00:50:32.071Z,9.1
2016-10-21T00:50:42.065Z,9.1
2016-10-21T00:50:52.064Z,9.1
2016-10-21T00:51:02.053Z,9.1
2016-10-21T00:51:12.048Z,9.1
2016-10-21T00:51:22.043Z,9.1
2016-10-21T00:51:32.036Z,9
2016-10-21T00:51:42.038Z,9.1
2016-10-21T00:51:52.024Z,9.1
2016-10-21T00:52:02.019Z,9.1
2016-10-21T00:52:12.015Z,9.1
2016-10-21T00:52:22.006Z,9.1
2016-10-21T00:52:32.001Z,9.1
2016-10-21T00:52:41.995Z,9.1
2016-10-21T00:52:51.990Z,9.2
2016-10-21T00:53:01.984Z,9.1
2016-10-21T00:53:11.978Z,9.1
2016-10-21T00:53:21.972Z,9
2016-10-21T00:53:31.967Z,9.1
2016-10-21T00:53:41.960Z,9.1
2016-10-21T00:53:51.955Z,9.1
2016-10-21T00:54:01.948Z,9.1
2016-10-21T00:54:11.943Z,9.1
2016-10-21T00:54:21.937Z,9.1
2016-10-21T00:54:31.931Z,9.1
2016-10-21T00:54:41.925Z,9.1
2016-10-21T00:54:51.920Z,9
2016-10-21T00:55:01.914Z,9.1
2016-10-21T00:55:11.908Z,9.1
2016-10-21T00:55:21.903Z,9.1
2016-10-21T00:55:31.896Z,9.1
2016-10-21T00:55:41.891Z,9.1
2016-10-21T00:55:51.884Z,9.1
2016-10-21T00:56:01.879Z,9.1
2016-10-21T00:56:11.874Z,9.1
2016-10-21T00:56:21.869Z,9.1
2016-10-21T00:56:31.863Z,9.1
2016-10-21T00:56:41.854Z,9.1
2016-10-21T00:56:51.849Z,9.1
2016-10-21T00:57:01.844Z,9
2016-10-21T00:57:11.837Z,9.2
2016-10-21T00:57:21.833Z,9.1
2016-10-21T00:57:31.826Z,9.1
2016-10-21T00:57:41.820Z,9.1
2016-10-21T00:57:51.815Z,9.1
2016-10-21T00:58:01.809Z,9.1
2016-10-21T00:58:11.802Z,9.1
2016-10-21T00:58:21.797Z,9.1
2016-10-21T00:58:31.791Z,9.1
2016-10-21T00:58:41.785Z,9.1
2016-10-21T00:58:51.781Z,9
2016-10-21T00:59:01.774Z,9.1
2016-10-21T00:59:11.768Z,9.1
2016-10-21T00:59:21.763Z,9.1
2016-10-21T00:59:31.756Z,9.1
2016-10-21T00:59:41.752Z,9.1
2016-10-21T00:59:51.744Z,9
2016-10-21T01:00:01.739Z,9
2016-10-21T01:00:11.734Z,9
2016-10-21T01:00:21.727Z,9
2016-10-21T01:00:31.721Z,9
2016-10-21T01:00:41.715Z,9.1
2016-10-21T01:00:51.709Z,9
2016-10-21T01:01:01.704Z,9
2016-10-21T01:01:11.697Z,9
2016-10-21T01:01:21.692Z,9.1
2016-10-21T01:01:31.687Z,8.9
2016-10-21T01:01:41.680Z,8.9
2016-10-21T01:01:51.675Z,8.9
2016-10-21T01:02:01.670Z,9
2016-10-21T01:02:11.663Z,8.9
2016-10-21T01:02:21.658Z,9
2016-10-21T01:02:31.651Z,9
2016-10-21T01:02:41.646Z,9
2016-10-21T01:02:51.640Z,9
2016-10-21T01:03:01.632Z,8.9
2016-10-21T01:03:11.628Z,8.9
2016-10-21T01:03:21.621Z,8.9
2016-10-21T01:03:31.617Z,8.9
2016-10-21T01:03:41.611Z,8.9
2016-10-21T01:03:51.604Z,8.9
2016-10-21T01:04:01.599Z,8.8
2016-10-21T01:04:11.593Z,8.9
2016-10-21T01:04:21.586Z,8.9
2016-10-21T01:04:31.581Z,8.9
2016-10-21T01:04:41.575Z,8.9
2016-10-21T01:04:51.569Z,8.9
2016-10-21T01:05:01.565Z,8.9
2016-10-21T01:05:11.559Z,8.9
2016-10-21T01:05:21.552Z,8.9
2016-10-21T01:05:31.546Z,8.8
2016-10-21T01:05:41.540Z,8.9
2016-10-21T01:05:51.535Z,8.9
2016-10-21T01:06:01.528Z,8.9
2016-10-21T01:06:11.523Z,8.9
2016-10-21T01:06:21.517Z,8.8
2016-10-21T01:06:31.511Z,8.8
2016-10-21T01:06:41.505Z,8.8
2016-10-21T01:06:51.500Z,8.9
2016-10-21T01:07:01.494Z,8.8
2016-10-21T01:07:11.492Z,8.9
2016-10-21T01:07:21.482Z,8.8
2016-10-21T01:07:31.476Z,8.9
2016-10-21T01:07:41.471Z,8.9
2016-10-21T01:07:51.464Z,8.8
2016-10-21T01:08:01.459Z,8.9
2016-10-21T01:08:11.454Z,8.9
2016-10-21T01:08:21.447Z,8.9
2016-10-21T01:08:31.441Z,8.9
2016-10-21T01:08:41.434Z,8.9
2016-10-21T01:08:51.429Z,8.9
2016-10-21T01:09:01.424Z,8.8
2016-10-21T01:09:11.417Z,8.9
2016-10-21T01:09:21.412Z,8.8
2016-10-21T01:09:31.406Z,8.9
2016-10-21T01:09:41.400Z,8.8
2016-10-21T01:09:51.394Z,8.8
2016-10-21T01:10:01.388Z,8.8
2016-10-21T01:10:11.382Z,8.9
2016-10-21T01:10:21.376Z,8.8
2016-10-21T01:10:31.370Z,8.8
2016-10-21T01:10:41.365Z,8.8
2016-10-21T01:10:51.360Z,8.8
2016-10-21T01:11:01.353Z,8.7
2016-10-21T01:11:11.349Z,8.9
2016-10-21T01:11:21.343Z,8.8
2016-10-21T01:11:31.336Z,8.8
2016-10-21T01:11:41.331Z,8.7
2016-10-21T01:11:51.323Z,8.7
2016-10-21T01:12:01.319Z,8.7
2016-10-21T01:12:11.313Z,8.8
2016-10-21T01:12:21.306Z,8.8
2016-10-21T01:12:31.301Z,8.8
2016-10-21T01:12:41.295Z,8.8
2016-10-21T01:12:51.290Z,8.7
2016-10-21T01:13:01.284Z,8.6
2016-10-21T01:13:11.277Z,8.7
2016-10-21T01:13:21.274Z,8.6
2016-10-21T01:13:31.266Z,8.7
2016-10-21T01:13:41.260Z,8.7
2016-10-21T01:13:51.254Z,8.6
2016-10-21T01:14:01.249Z,8.7
2016-10-21T01:14:11.243Z,8.7
2016-10-21T01:14:21.238Z,8.7
2016-10-21T01:14:31.230Z,8.6
2016-10-21T01:14:41.226Z,8.6
2016-10-21T01:14:51.218Z,8.7
2016-10-21T01:15:01.213Z,8.6
2016-10-21T01:15:11.208Z,8.8
2016-10-21T01:15:21.200Z,8.7
2016-10-21T01:15:31.195Z,8.7
2016-10-21T01:15:41.190Z,8.7
2016-10-21T01:15:51.183Z,8.6
2016-10-21T01:16:01.180Z,8.7
2016-10-21T01:16:11.174Z,8.7
2016-10-21T01:16:21.166Z,8.7
2016-10-21T01:16:31.160Z,8.7
2016-10-21T01:16:41.154Z,8.6
2016-10-21T01:16:51.149Z,8.6
2016-10-21T01:17:01.143Z,8.6
2016-10-21T01:17:11.136Z,8.6
2016-10-21T01:17:21.131Z,8.7
2016-10-21T01:17:31.126Z,8.6
2016-10-21T01:17:41.118Z,8.7
2016-10-21T01:17:51.113Z,8.7
2016-10-21T01:18:01.107Z,8.6
2016-10-21T01:18:11.105Z,8.7
2016-10-21T01:18:21.096Z,8.7
2016-10-21T01:18:31.090Z,8.7
2016-10-21T01:18:41.085Z,8.7
2016-10-21T01:18:51.079Z,8.6
2016-10-21T01:19:01.072Z,8.7
2016-10-21T01:19:11.067Z,8.7
2016-10-21T01:19:21.060Z,8.7
2016-10-21T01:19:31.055Z,8.6
2016-10-21T01:19:41.049Z,8.7
2016-10-21T01:19:51.043Z,8.7
2016-10-21T01:20:01.037Z,8.6
2016-10-21T01:20:11.032Z,8.6
2016-10-21T01:20:21.026Z,8.6
2016-10-21T01:20:31.021Z,8.6
2016-10-21T01:20:41.014Z,8.6
2016-10-21T01:20:51.008Z,8.7
2016-10-21T01:21:01.003Z,8.8
2016-10-21T01:21:10.996Z,8.6
2016-10-21T01:21:20.991Z,8.7
2016-10-21T01:21:30.985Z,8.8
2016-10-21T01:21:40.980Z,8.7
2016-10-21T01:21:50.973Z,8.7
2016-10-21T01:22:00.967Z,8.6
2016-10-21T01:22:10.961Z,8.7
2016-10-21T01:22:20.956Z,8.8
2016-10-21T01:22:30.949Z,8.7
2016-10-21T01:22:40.943Z,8.7
2016-10-21T01:22:50.940Z,8.7
2016-10-21T01:23:00.932Z,8.8
2016-10-21T01:23:10.928Z,8.8
2016-10-21T01:23:20.921Z,8.7
2016-10-21T01:23:30.915Z,8.7
2016-10-21T01:23:40.909Z,8.8
2016-10-21T01:23:50.902Z,8.8
2016-10-21T01:24:00.897Z,8.8
2016-10-21T01:24:10.891Z,8.8
2016-10-21T01:24:20.885Z,8.8
2016-10-21T01:24:30.879Z,8.8
2016-10-21T01:24:40.874Z,8.8
2016-10-21T01:24:50.868Z,8.8
2016-10-21T01:25:00.863Z,8.8
2016-10-21T01:25:10.856Z,8.8
2016-10-21T01:25:20.850Z,8.8
2016-10-21T01:25:30.845Z,8.8
2016-10-21T01:25:40.839Z,8.7
2016-10-21T01:25:50.831Z,8.8
2016-10-21T01:26:00.827Z,8.7
2016-10-21T01:26:10.821Z,8.7
2016-10-21T01:26:20.816Z,8.8
2016-10-21T01:26:30.810Z,8.8
2016-10-21T01:26:40.805Z,8.7
2016-10-21T01:26:50.798Z,8.7
2016-10-21T01:27:00.792Z,8.7
2016-10-21T01:27:10.786Z,8.7
2016-10-21T01:27:20.779Z,8.8
2016-10-21T01:27:30.774Z,8.8
2016-10-21T01:27:40.768Z,8.8
2016-10-21T01:27:50.762Z,8.7
2016-10-21T01:28:00.757Z,8.8
2016-10-21T01:28:10.752Z,8.7
2016-10-21T01:28:20.744Z,8.7
2016-10-21T01:28:30.740Z,8.8
2016-10-21T01:28:40.732Z,8.8
2016-10-21T01:28:50.727Z,8.8
2016-10-21T01:29:00.721Z,8.8
2016-10-21T01:29:10.716Z,8.7
2016-10-21T01:29:20.711Z,8.8
2016-10-21T01:29:30.704Z,8.8
2016-10-21T01:29:40.698Z,8.9
2016-10-21T01:29:50.692Z,8.8
2016-10-21T01:30:00.684Z,8.8
2016-10-21T01:30:10.681Z,8.8
2016-10-21T01:30:20.673Z,8.8
2016-10-21T01:30:30.668Z,8.8
2016-10-21T01:30:40.664Z,8.7
2016-10-21T01:30:50.657Z,8.8
2016-10-21T01:31:00.651Z,8.8
2016-10-21T01:31:10.644Z,8.8
2016-10-21T01:31:20.639Z,8.8
2016-10-21T01:31:30.633Z,8.8
2016-10-21T01:31:40.628Z,8.8
2016-10-21T01:31:50.621Z,8.8
2016-10-21T01:32:00.617Z,8.8
2016-10-21T01:32:10.612Z,8.8
2016-10-21T01:32:20.605Z,8.8
2016-10-21T01:32:30.597Z,8.8
2016-10-21T01:32:40.592Z,8.8
2016-10-21T01:32:50.587Z,8.9
2016-10-21T01:33:00.581Z,8.8
2016-10-21T01:33:10.574Z,8.8
2016-10-21T01:33:20.569Z,8.8
2016-10-21T01:33:30.563Z,8.8
2016-10-21T01:33:40.557Z,8.8
2016-10-21T01:33:50.552Z,8.8
2016-10-21T01:34:00.545Z,8.9
2016-10-21T01:34:10.540Z,8.8
2016-10-21T01:34:20.533Z,8.9
2016-10-21T01:34:30.528Z,8.7
2016-10-21T01:34:40.521Z,8.9
2016-10-21T01:34:50.516Z,8.8
2016-10-21T01:35:00.511Z,8.8
2016-10-21T01:35:10.506Z,8.8
2016-10-21T01:35:20.500Z,8.8
2016-10-21T01:35:30.493Z,8.9
2016-10-21T01:35:40.489Z,8.8
2016-10-21T01:35:50.481Z,8.8
2016-10-21T01:36:00.476Z,8.8
2016-10-21T01:36:10.469Z,8.8
2016-10-21T01:36:20.464Z,8.8
2016-10-21T01:36:30.458Z,8.8
2016-10-21T01:36:40.451Z,8.8
2016-10-21T01:36:50.446Z,8.9
2016-10-21T01:37:00.441Z,8.9
2016-10-21T01:37:10.434Z,8.9
2016-10-21T01:37:20.429Z,8.9
2016-10-21T01:37:30.423Z,8.9
2016-10-21T01:37:40.416Z,8.9
2016-10-21T01:37:50.411Z,8.9
2016-10-21T01:38:00.404Z,8.8
2016-10-21T01:38:10.400Z,8.9
2016-10-21T01:38:20.397Z,8.9
2016-10-21T01:38:30.387Z,8.9
2016-10-21T01:38:40.382Z,8.9
2016-10-21T01:38:50.376Z,8.8
2016-10-21T01:39:00.370Z,8.8
2016-10-21T01:39:10.364Z,8.8
2016-10-21T01:39:20.357Z,8.8
2016-10-21T01:39:30.352Z,8.9
2016-10-21T01:39:40.347Z,8.8
2016-10-21T01:39:50.342Z,8.9
2016-10-21T01:40:00.336Z,8.8
2016-10-21T01:40:10.330Z,8.8
2016-10-21T01:40:20.324Z,8.9
2016-10-21T01:40:30.316Z,8.9
2016-10-21T01:40:40.311Z,8.9
2016-10-21T01:40:50.305Z,8.9
2016-10-21T01:41:00.300Z,8.9
2016-10-21T01:41:10.293Z,8.9
2016-10-21T01:41:20.288Z,8.8
2016-10-21T01:41:30.287Z,8.9
2016-10-21T01:41:40.276Z,8.8
2016-10-21T01:41:50.271Z,8.8
2016-10-21T01:42:00.264Z,8.8
2016-10-21T01:42:10.259Z,8.8
2016-10-21T01:42:20.253Z,8.8
2016-10-21T01:42:30.246Z,8.8
2016-10-21T01:42:40.242Z,8.8
2016-10-21T01:42:50.236Z,8.9
2016-10-21T01:43:00.229Z,8.8
2016-10-21T01:43:10.223Z,8.9
2016-10-21T01:43:20.217Z,8.9
2016-10-21T01:43:30.211Z,8.9
2016-10-21T01:43:40.206Z,8.8
2016-10-21T01:43:50.199Z,8.9
2016-10-21T01:44:00.194Z,8.8
2016-10-21T01:44:10.189Z,8.9
2016-10-21T01:44:20.182Z,8.8
2016-10-21T01:44:30.177Z,8.8
2016-10-21T01:44:40.170Z,8.9
2016-10-21T01:44:50.163Z,8.8
2016-10-21T01:45:00.159Z,8.9
2016-10-21T01:45:10.153Z,8.9
2016-10-21T01:45:20.147Z,8.9
2016-10-21T01:45:30.143Z,8.7
2016-10-21T01:45:40.135Z,8.8
2016-10-21T01:45:50.131Z,8.9
2016-10-21T01:46:00.123Z,8.9
2016-10-21T01:46:10.118Z,8.8
2016-10-21T01:46:20.113Z,8.8
2016-10-21T01:46:30.106Z,8.9
2016-10-21T01:46:40.100Z,8.9
2016-10-21T01:46:50.096Z,8.9
2016-10-21T01:47:00.091Z,8.8
2016-10-21T01:47:10.083Z,8.9
2016-10-21T01:47:20.076Z,8.9
2016-10-21T01:47:30.071Z,8.9
2016-10-21T01:47:40.066Z,8.9
2016-10-21T01:47:50.059Z,8.9
2016-10-21T01:48:00.054Z,8.9
2016-10-21T01:48:10.047Z,8.9
2016-10-21T01:48:20.041Z,8.9
2016-10-21T01:48:30.036Z,8.9
2016-10-21T01:48:40.030Z,8.9
2016-10-21T01:48:50.024Z,8.9
2016-10-21T01:49:00.019Z,8.9
2016-10-21T01:49:10.012Z,8.9
2016-10-21T01:49:20.007Z,8.9
2016-10-21T01:49:30.002Z,8.9
2016-10-21T01:49:39.993Z,8.9
2016-10-21T01:49:49.989Z,8.9
2016-10-21T01:49:59.982Z,9
2016-10-21T01:50:09.977Z,9
2016-10-21T01:50:19.972Z,9
2016-10-21T01:50:29.965Z,9
2016-10-21T01:50:39.959Z,9
2016-10-21T01:50:49.954Z,9
2016-10-21T01:50:59.947Z,9
2016-10-21T01:51:09.942Z,8.9
2016-10-21T01:51:19.936Z,8.9
2016-10-21T01:51:29.930Z,8.9
2016-10-21T01:51:39.925Z,8.9
2016-10-21T01:51:49.919Z,8.9
2016-10-21T01:51:59.913Z,8.9
2016-10-21T01:52:09.907Z,9
2016-10-21T01:52:19.901Z,8.9
2016-10-21T01:52:29.895Z,9
2016-10-21T01:52:39.889Z,9
2016-10-21T01:52:49.883Z,9
2016-10-21T01:52:59.878Z,8.9
2016-10-21T01:53:09.873Z,9
2016-10-21T01:53:19.867Z,8.9
2016-10-21T01:53:29.860Z,8.9
2016-10-21T01:53:39.853Z,9
2016-10-21T01:53:49.849Z,8.9
2016-10-21T01:53:59.842Z,8.9
2016-10-21T01:54:09.836Z,8.8
2016-10-21T01:54:19.831Z,8.9
2016-10-21T01:54:29.825Z,8.9
2016-10-21T01:54:39.818Z,8.9
2016-10-21T01:54:49.813Z,8.9
2016-10-21T01:54:59.808Z,8.9
2016-10-21T01:55:09.801Z,8.9
2016-10-21T01:55:19.795Z,8.9
2016-10-21T01:55:29.789Z,8.9
2016-10-21T01:55:39.783Z,8.9
2016-10-21T01:55:49.778Z,8.9
2016-10-21T01:55:59.773Z,8.9
2016-10-21T01:56:09.766Z,8.9
2016-10-21T01:56:19.760Z,8.9
2016-10-21T01:56:29.755Z,9
2016-10-21T01:56:39.749Z,8.9
2016-10-21T01:56:49.742Z,8.9
2016-10-21T01:56:59.736Z,8.9
2016-10-21T01:57:09.731Z,9
2016-10-21T01:57:19.725Z,8.9
2016-10-21T01:57:29.719Z,8.9
2016-10-21T01:57:39.714Z,9
2016-10-21T01:57:49.708Z,8.9
2016-10-21T01:57:59.703Z,8.9
2016-10-21T01:58:09.696Z,8.9
2016-10-21T01:58:19.690Z,8.9
2016-10-21T01:58:29.683Z,8.9
2016-10-21T01:58:39.677Z,8.9
2016-10-21T01:58:49.673Z,8.9
2016-10-21T01:58:59.668Z,8.9
2016-10-21T01:59:09.661Z,8.9
2016-10-21T01:59:19.655Z,8.9
2016-10-21T01:59:29.649Z,8.8
2016-10-21T01:59:39.643Z,8.8
2016-10-21T01:59:49.637Z,8.8
2016-10-21T01:59:59.631Z,8.7
2016-10-21T02:00:09.626Z,8.8
2016-10-21T02:00:19.619Z,8.8
2016-10-21T02:00:29.615Z,8.8
2016-10-21T02:00:39.609Z,8.8
2016-10-21T02:00:49.601Z,8.8
2016-10-21T02:00:59.596Z,8.7
2016-10-21T02:01:09.590Z,8.8
2016-10-21T02:01:19.585Z,8.8
2016-10-21T02:01:29.579Z,8.8
2016-10-21T02:01:39.572Z,8.8
2016-10-21T02:01:49.567Z,8.8
2016-10-21T02:01:59.570Z,8.8
2016-10-21T02:02:09.555Z,8.9
2016-10-21T02:02:19.549Z,8.9
2016-10-21T02:02:29.543Z,8.8
2016-10-21T02:02:39.537Z,8.8
2016-10-21T02:02:49.532Z,8.8
2016-10-21T02:02:59.526Z,8.9
2016-10-21T02:03:09.520Z,8.9
2016-10-21T02:03:19.514Z,8.8
2016-10-21T02:03:29.522Z,8.8
2016-10-21T02:03:39.503Z,8.9
2016-10-21T02:03:49.496Z,8.9
2016-10-21T02:03:59.491Z,8.9
2016-10-21T02:04:09.486Z,8.9
2016-10-21T02:04:19.477Z,8.9
2016-10-21T02:04:29.473Z,8.9
2016-10-21T02:04:39.466Z,8.8
2016-10-21T02:04:49.461Z,8.9
2016-10-21T02:04:59.456Z,8.9
2016-10-21T02:05:09.450Z,8.9
2016-10-21T02:05:19.444Z,8.9
2016-10-21T02:05:29.440Z,8.9
2016-10-21T02:05:39.432Z,8.9
2016-10-21T02:05:49.426Z,8.9
2016-10-21T02:05:59.420Z,8.9
2016-10-21T02:06:09.414Z,8.9
2016-10-21T02:06:19.409Z,8.9
2016-10-21T02:06:29.402Z,8.9
2016-10-21T02:06:39.397Z,8.9
2016-10-21T02:06:49.391Z,8.9
2016-10-21T02:06:59.385Z,8.9
2016-10-21T02:07:09.380Z,8.9
2016-10-21T02:07:19.373Z,8.9
2016-10-21T02:07:29.367Z,8.9
2016-10-21T02:07:39.361Z,8.9
2016-10-21T02:07:49.355Z,8.9
2016-10-21T02:07:59.350Z,8.9
2016-10-21T02:08:09.344Z,8.9
2016-10-21T02:08:19.338Z,8.8
2016-10-21T02:08:29.333Z,8.9
2016-10-21T02:08:39.326Z,8.8
2016-10-21T02:08:49.320Z,8.9
2016-10-21T02:08:59.315Z,8.9
2016-10-21T02:09:09.308Z,8.9
2016-10-21T02:09:19.303Z,8.9
2016-10-21T02:09:29.297Z,8.9
2016-10-21T02:09:39.291Z,8.9
2016-10-21T02:09:49.287Z,8.9
2016-10-21T02:09:59.279Z,8.9
2016-10-21T02:10:09.274Z,8.9
2016-10-21T02:10:19.268Z,8.9
2016-10-21T02:10:29.261Z,8.8
2016-10-21T02:10:39.254Z,8.8
2016-10-21T02:10:49.275Z,8.8
2016-10-21T02:10:59.245Z,8.9
2016-10-21T02:11:09.239Z,8.8
2016-10-21T02:11:19.232Z,8.8
2016-10-21T02:11:29.226Z,8.8
2016-10-21T02:11:39.221Z,8.8
2016-10-21T02:11:49.214Z,8.8
2016-10-21T02:11:59.209Z,8.8
2016-10-21T02:12:09.204Z,8.8
2016-10-21T02:12:19.197Z,8.8
2016-10-21T02:12:29.192Z,8.9
2016-10-21T02:12:39.185Z,8.8
2016-10-21T02:12:49.180Z,8.9
2016-10-21T02:12:59.174Z,8.9
2016-10-21T02:13:09.168Z,8.9
2016-10-21T02:13:19.162Z,8.8
2016-10-21T02:13:29.157Z,8.7
2016-10-21T02:13:39.150Z,8.8
2016-10-21T02:13:49.144Z,8.8
2016-10-21T02:13:59.138Z,8.9
2016-10-21T02:14:09.133Z,8.7
2016-10-21T02:14:19.127Z,8.9
2016-10-21T02:14:29.120Z,8.9
2016-10-21T02:14:39.115Z,8.8
2016-10-21T02:14:49.110Z,8.8
2016-10-21T02:14:59.102Z,8.9
2016-10-21T02:15:09.096Z,8.9
2016-10-21T02:15:19.092Z,8.9
2016-10-21T02:15:29.086Z,8.9
2016-10-21T02:15:39.080Z,8.9
2016-10-21T02:15:49.074Z,8.9
2016-10-21T02:15:59.069Z,8.9
2016-10-21T02:16:09.063Z,8.9
2016-10-21T02:16:19.056Z,8.9
2016-10-21T02:16:29.049Z,8.9
2016-10-21T02:16:39.044Z,8.9
2016-10-21T02:16:49.043Z,9
2016-10-21T02:16:59.037Z,9
2016-10-21T02:17:09.031Z,8.9
2016-10-21T02:17:19.025Z,8.9
2016-10-21T02:17:29.021Z,9
2016-10-21T02:17:39.014Z,8.9
2016-10-21T02:17:49.008Z,9
2016-10-21T02:17:59.002Z,9